Time;durP1;ratioP1;P1;durP2;ratioP2;P2;SDS_P1;SDS_P2;PMS_P1;PMS_P2;Temp;Humidity;BMP_temperature;BMP_pressure;BME280_temperature;BME280_humidity;BME280_pressure;Samples;Min_cycle;Max_cycle;Signal;HPM_P1;HPM_P2
2022/08/01 00:00:13;;;;;;;3.58;2.22;;;18.60;99.90;;;;;;4966584;28;20046;-84
2022/08/01 00:02:40;;;;;;;3.65;2.58;;;18.60;99.90;;;;;;4971612;28;20140;-83
2022/08/01 00:05:07;;;;;;;5.72;2.85;;;18.60;99.90;;;;;;4985681;28;20046;-83
2022/08/01 00:07:33;;;;;;;5.07;2.80;;;18.50;99.90;;;;;;4964868;28;20925;-84
2022/08/01 00:09:59;;;;;;;5.00;3.00;;;18.50;99.90;;;;;;4997667;28;20122;-83
2022/08/01 00:12:25;;;;;;;6.85;3.28;;;18.50;99.90;;;;;;4964764;28;20049;-83
2022/08/01 00:14:51;;;;;;;5.90;3.15;;;18.50;99.90;;;;;;4999828;28;20167;-83
2022/08/01 00:17:16;;;;;;;5.68;3.55;;;18.40;99.90;;;;;;4954111;28;20398;-83
2022/08/01 00:19:42;;;;;;;5.18;2.50;;;18.40;99.90;;;;;;4979631;28;20041;-83
2022/08/01 00:22:08;;;;;;;4.68;3.00;;;18.40;99.90;;;;;;4998107;28;20544;-83
2022/08/01 00:24:33;;;;;;;6.72;2.80;;;18.40;99.90;;;;;;4982324;28;20497;-83
2022/08/01 00:26:59;;;;;;;6.82;3.40;;;18.40;99.90;;;;;;4971383;28;20624;-84
2022/08/01 00:29:25;;;;;;;5.57;2.85;;;18.40;99.90;;;;;;4996246;28;20647;-84
2022/08/01 00:31:51;;;;;;;6.68;3.30;;;18.40;99.90;;;;;;4982794;28;20081;-83
2022/08/01 00:34:17;;;;;;;8.57;3.50;;;18.30;99.90;;;;;;4970404;28;20061;-84
2022/08/01 00:36:42;;;;;;;5.10;2.42;;;18.40;99.90;;;;;;4965827;28;20088;-83
2022/08/01 00:39:08;;;;;;;6.00;2.60;;;18.40;99.90;;;;;;4977130;28;20098;-83
2022/08/01 00:41:34;;;;;;;7.22;3.28;;;18.40;99.90;;;;;;4919890;28;1151414;-84
2022/08/01 00:44:03;;;;;;;6.68;3.40;;;18.30;99.90;;;;;;4970462;28;20095;-83
2022/08/01 00:46:29;;;;;;;6.75;3.13;;;18.30;99.90;;;;;;4996157;28;20042;-84
2022/08/01 00:48:55;;;;;;;4.55;2.55;;;18.30;99.90;;;;;;4997137;28;20749;-84
2022/08/01 00:51:22;;;;;;;4.43;2.42;;;18.30;99.90;;;;;;4970039;28;20049;-83
2022/08/01 00:53:48;;;;;;;6.13;2.67;;;18.20;99.90;;;;;;4996306;28;20045;-83
2022/08/01 00:56:14;;;;;;;4.25;2.10;;;18.20;99.90;;;;;;4955006;28;20030;-83
2022/08/01 00:58:40;;;;;;;5.32;1.80;;;18.20;99.90;;;;;;4982166;28;20042;-83
2022/08/01 01:01:05;;;;;;;4.22;1.90;;;18.10;99.90;;;;;;4980371;28;20061;-83
2022/08/01 01:03:31;;;;;;;4.85;1.80;;;18.20;99.90;;;;;;4973353;28;20053;-83
2022/08/01 01:06:34;;;;;;;6.22;1.83;;;18.20;99.90;;;;;;5003641;28;20070;-83
2022/08/01 01:09:06;;;;;;;5.18;1.92;;;18.10;99.90;;;;;;4984544;28;20629;-82
2022/08/01 01:11:44;;;;;;;4.40;2.00;;;18.10;99.90;;;;;;5000734;28;20293;-84
2022/08/01 01:14:20;;;;;;;5.53;2.20;;;18.10;99.90;;;;;;5001745;28;20395;-83
2022/08/01 01:16:46;;;;;;;6.95;2.22;;;18.10;99.90;;;;;;4984042;28;20065;-83
2022/08/01 01:19:20;;;;;;;9.13;2.28;;;18.10;99.90;;;;;;4976179;28;20054;-84
2022/08/01 01:22:24;;;;;;;8.38;2.60;;;18.10;99.90;;;;;;4998444;28;20527;-83
2022/08/01 01:25:02;;;;;;;8.82;2.55;;;18.10;99.90;;;;;;4926720;28;20043;-83
2022/08/01 01:27:53;;;;;;;8.38;2.95;;;18.10;99.90;;;;;;4974002;28;20107;-83
2022/08/01 01:30:19;;;;;;;11.98;2.65;;;18.20;99.90;;;;;;5015771;28;20538;-82
2022/08/01 01:32:49;;;;;;;12.57;2.80;;;18.10;99.90;;;;;;4983529;28;20656;-83
2022/08/01 01:35:21;;;;;;;13.27;3.30;;;18.20;99.90;;;;;;4985522;28;20077;-83
2022/08/01 01:37:48;;;;;;;13.35;3.55;;;18.10;99.90;;;;;;4989905;28;20046;-82
2022/08/01 01:40:17;;;;;;;12.25;2.80;;;17.70;99.90;;;;;;5000246;28;20052;-82
2022/08/01 01:42:43;;;;;;;8.23;3.13;;;18.10;99.90;;;;;;4998493;28;20491;-83
2022/08/01 01:45:11;;;;;;;10.75;2.95;;;18.10;99.90;;;;;;4982715;28;20069;-82
2022/08/01 01:47:39;;;;;;;9.93;2.45;;;18.10;99.90;;;;;;4990185;28;20049;-82
2022/08/01 01:50:08;;;;;;;9.05;2.60;;;18.10;99.90;;;;;;5000623;28;20053;-82
2022/08/01 01:52:35;;;;;;;10.73;2.95;;;18.10;99.90;;;;;;5000442;28;20046;-82
2022/08/01 01:55:05;;;;;;;11.52;2.60;;;18.10;99.90;;;;;;4997422;28;20545;-82
2022/08/01 01:57:32;;;;;;;9.63;2.50;;;18.10;99.90;;;;;;4995609;28;20058;-82
2022/08/01 01:59:59;;;;;;;9.63;2.53;;;18.10;99.90;;;;;;4970472;28;20054;-82
2022/08/01 02:02:25;;;;;;;8.55;2.35;;;18.10;99.90;;;;;;4974632;28;20080;-81
2022/08/01 02:04:53;;;;;;;8.60;2.40;;;18.10;99.90;;;;;;4982723;28;20044;-82
2022/08/01 02:07:22;;;;;;;9.35;2.38;;;18.10;99.90;;;;;;4990486;28;20326;-82
2022/08/01 02:09:49;;;;;;;10.65;2.60;;;18.10;99.90;;;;;;4985581;28;20060;-82
2022/08/01 02:12:17;;;;;;;7.22;2.65;;;18.00;99.90;;;;;;5000416;28;20072;-82
2022/08/01 02:14:44;;;;;;;12.48;3.20;;;18.10;99.90;;;;;;4986456;28;20041;-82
2022/08/01 02:17:11;;;;;;;16.60;3.75;;;18.10;99.90;;;;;;4982793;28;20525;-81
2022/08/01 02:19:37;;;;;;;10.77;2.92;;;18.10;99.90;;;;;;4999745;28;20056;-82
2022/08/01 02:22:25;;;;;;;8.07;2.65;;;18.00;99.90;;;;;;4982511;28;20042;-82
2022/08/01 02:25:26;;;;;;;9.55;2.80;;;18.00;99.90;;;;;;4997612;28;20042;-82
2022/08/01 02:28:04;;;;;;;5.70;2.30;;;18.00;99.90;;;;;;4983756;28;20054;-83
2022/08/01 02:30:35;;;;;;;9.98;2.58;;;18.00;99.90;;;;;;4984381;28;20046;-82
2022/08/01 02:33:23;;;;;;;6.60;1.92;;;18.00;99.90;;;;;;4967389;28;20124;-82
2022/08/01 02:35:52;;;;;;;9.18;2.42;;;17.90;99.90;;;;;;4998037;28;20053;-82
2022/08/01 02:38:22;;;;;;;6.22;2.60;;;17.90;99.90;;;;;;4998667;28;20053;-82
2022/08/01 02:40:52;;;;;;;4.57;2.17;;;17.90;99.90;;;;;;4982603;28;20560;-83
2022/08/01 02:43:22;;;;;;;7.80;2.35;;;17.90;99.90;;;;;;4997711;28;20049;-83
2022/08/01 02:45:52;;;;;;;7.13;2.60;;;17.90;99.90;;;;;;4999593;28;20063;-82
2022/08/01 02:48:20;;;;;;;9.57;2.47;;;17.90;99.90;;;;;;4988429;28;20423;-83
2022/08/01 02:50:49;;;;;;;8.50;2.45;;;17.90;99.90;;;;;;4974008;28;20041;-83
2022/08/01 02:53:17;;;;;;;10.52;2.78;;;17.90;99.90;;;;;;4984745;28;20569;-83
2022/08/01 02:55:47;;;;;;;9.05;2.55;;;17.90;99.90;;;;;;4981950;28;20045;-83
2022/08/01 02:58:15;;;;;;;11.98;2.83;;;17.80;99.90;;;;;;4998598;28;20093;-82
2022/08/01 03:00:43;;;;;;;14.38;3.00;;;17.80;99.90;;;;;;4984016;28;20136;-83
2022/08/01 03:03:10;;;;;;;9.27;2.58;;;17.90;99.90;;;;;;4988607;28;20052;-82
2022/08/01 03:05:37;;;;;;;10.38;2.88;;;17.90;99.90;;;;;;4979086;28;20064;-82
2022/08/01 03:08:05;;;;;;;11.60;2.30;;;17.80;99.90;;;;;;4989448;28;20045;-83
2022/08/01 03:10:33;;;;;;;13.40;2.53;;;17.80;99.90;;;;;;4999863;28;20403;-82
2022/08/01 03:13:01;;;;;;;10.93;2.47;;;17.80;99.90;;;;;;5014503;28;20049;-83
2022/08/01 03:15:30;;;;;;;13.10;2.47;;;17.70;99.90;;;;;;4998404;28;20057;-82
2022/08/01 03:17:57;;;;;;;10.05;2.30;;;17.70;99.90;;;;;;4982004;28;20046;-82
2022/08/01 03:20:25;;;;;;;10.23;2.25;;;17.70;99.90;;;;;;4971673;28;20069;-82
2022/08/01 03:22:52;;;;;;;11.20;2.47;;;17.70;99.90;;;;;;4982683;28;20058;-83
2022/08/01 03:25:20;;;;;;;10.35;2.22;;;17.60;99.90;;;;;;4966834;28;20517;-83
2022/08/01 03:27:53;;;;;;;10.10;2.38;;;17.60;99.90;;;;;;4984453;28;20120;-82
2022/08/01 03:30:21;;;;;;;13.60;2.85;;;17.60;99.90;;;;;;4984364;28;20142;-82
2022/08/01 03:32:46;;;;;;;11.30;2.90;;;17.60;99.90;;;;;;4980309;28;20394;-82
2022/08/01 03:35:12;;;;;;;7.55;2.08;;;17.60;99.90;;;;;;4999504;28;20050;-82
2022/08/01 03:37:47;;;;;;;7.97;2.13;;;17.50;99.90;;;;;;4982597;28;20061;-82
2022/08/01 03:40:33;;;;;;;7.25;2.25;;;17.50;99.90;;;;;;4981745;28;20083;-82
2022/08/01 03:43:07;;;;;;;11.00;2.63;;;17.50;99.90;;;;;;4992278;28;20057;-82
2022/08/01 03:45:39;;;;;;;14.20;2.30;;;17.50;99.90;;;;;;4988170;28;20050;-82
2022/08/01 03:48:11;;;;;;;9.30;2.42;;;17.50;99.90;;;;;;4999045;28;20053;-82
2022/08/01 03:50:41;;;;;;;9.60;2.13;;;17.50;99.90;;;;;;4988554;28;20051;-83
2022/08/01 03:53:09;;;;;;;11.93;2.30;;;17.40;99.90;;;;;;5013016;28;20387;-82
2022/08/01 03:55:38;;;;;;;9.82;2.70;;;17.40;99.90;;;;;;4998534;28;20045;-82
2022/08/01 03:58:04;;;;;;;9.85;2.20;;;17.40;99.90;;;;;;5013268;28;20050;-82
2022/08/01 04:00:31;;;;;;;8.57;2.60;;;17.40;99.90;;;;;;4982934;28;20507;-82
2022/08/01 04:02:57;;;;;;;9.77;2.33;;;17.30;99.90;;;;;;4981703;28;20042;-82
2022/08/01 04:05:24;;;;;;;10.43;2.47;;;17.30;99.90;;;;;;4987365;28;20052;-83
2022/08/01 04:07:56;;;;;;;11.23;2.90;;;17.30;99.90;;;;;;4971852;28;20045;-82
2022/08/01 04:10:25;;;;;;;9.93;2.10;;;17.30;99.90;;;;;;4997284;28;20132;-82
2022/08/01 04:12:52;;;;;;;8.98;2.53;;;17.30;99.90;;;;;;4982578;28;20080;-82
2022/08/01 04:15:17;;;;;;;11.60;2.25;;;17.30;99.90;;;;;;4982452;28;20060;-83
2022/08/01 04:17:43;;;;;;;13.23;2.67;;;17.30;99.90;;;;;;4987795;28;20054;-81
2022/08/01 04:20:10;;;;;;;12.93;2.20;;;17.30;99.90;;;;;;4973910;28;20455;-82
2022/08/01 04:22:36;;;;;;;15.32;3.17;;;17.30;99.90;;;;;;4966881;28;20041;-82
2022/08/01 04:25:09;;;;;;;10.90;2.40;;;17.30;99.90;;;;;;4996232;28;20076;-83
2022/08/01 04:27:38;;;;;;;13.10;2.40;;;17.20;99.90;;;;;;5014415;28;20046;-83
2022/08/01 04:30:05;;;;;;;14.30;2.58;;;17.20;99.90;;;;;;4986181;28;20136;-83
2022/08/01 04:32:34;;;;;;;11.95;2.53;;;17.20;99.90;;;;;;4996581;28;20116;-82
2022/08/01 04:35:06;;;;;;;10.82;2.80;;;17.20;99.90;;;;;;4983818;28;20085;-82
2022/08/01 04:37:33;;;;;;;10.68;2.20;;;17.20;99.90;;;;;;4987258;28;20546;-82
2022/08/01 04:40:00;;;;;;;10.23;2.97;;;17.20;99.90;;;;;;4971353;28;20045;-82
2022/08/01 04:42:27;;;;;;;12.63;2.58;;;17.20;99.90;;;;;;4984566;28;20054;-81
2022/08/01 04:44:53;;;;;;;11.93;2.50;;;17.30;99.90;;;;;;4981862;28;20053;-82
2022/08/01 04:47:19;;;;;;;12.23;2.70;;;17.30;99.90;;;;;;4983874;28;20459;-83
2022/08/01 04:49:46;;;;;;;11.43;2.25;;;17.20;99.90;;;;;;4997960;28;20049;-84
2022/08/01 04:52:12;;;;;;;11.27;2.33;;;17.20;99.90;;;;;;4981805;28;20077;-83
2022/08/01 04:54:37;;;;;;;10.23;2.97;;;17.20;99.90;;;;;;4997267;28;20126;-83
2022/08/01 04:57:06;;;;;;;7.90;3.13;;;17.20;99.90;;;;;;4970189;28;20398;-84
2022/08/01 04:59:41;;;;;;;8.27;3.10;;;17.20;99.90;;;;;;4971605;28;20479;-84
2022/08/01 05:02:12;;;;;;;11.50;3.50;;;17.20;99.90;;;;;;5017714;28;20460;-84
2022/08/01 05:04:39;;;;;;;9.05;2.85;;;17.20;99.90;;;;;;4983590;28;20045;-84
2022/08/01 05:07:06;;;;;;;10.60;3.03;;;17.30;99.90;;;;;;4997961;28;20077;-83
2022/08/01 05:09:32;;;;;;;13.73;3.20;;;17.30;99.90;;;;;;4994561;28;20045;-84
2022/08/01 05:12:02;;;;;;;9.55;3.25;;;17.30;99.90;;;;;;4999062;28;20045;-85
2022/08/01 05:14:31;;;;;;;10.55;3.17;;;17.30;99.90;;;;;;4991251;28;20104;-84
2022/08/01 05:16:58;;;;;;;8.25;2.47;;;17.30;99.90;;;;;;4974111;28;20053;-84
2022/08/01 05:19:24;;;;;;;10.70;2.40;;;17.30;99.90;;;;;;4998740;28;20511;-84
2022/08/01 05:21:50;;;;;;;10.52;2.85;;;17.30;99.90;;;;;;4965719;28;20049;-84
2022/08/01 05:24:15;;;;;;;10.77;2.50;;;17.30;99.90;;;;;;4965183;28;20069;-84
2022/08/01 05:26:41;;;;;;;8.02;2.25;;;17.30;99.90;;;;;;4980433;28;20045;-84
2022/08/01 05:29:07;;;;;;;8.18;2.35;;;17.30;99.90;;;;;;4997129;28;20485;-83
2022/08/01 05:31:34;;;;;;;8.88;2.60;;;17.40;99.90;;;;;;4973461;28;20056;-83
2022/08/01 05:34:03;;;;;;;12.15;2.50;;;17.40;99.90;;;;;;4996346;28;20373;-82
2022/08/01 05:36:29;;;;;;;7.80;2.42;;;17.40;99.90;;;;;;4999029;28;20132;-84
2022/08/01 05:38:55;;;;;;;9.55;2.70;;;17.40;99.90;;;;;;4970491;28;20060;-83
2022/08/01 05:41:21;;;;;;;10.07;2.88;;;17.50;99.90;;;;;;4981906;28;20062;-83
2022/08/01 05:43:46;;;;;;;10.38;2.47;;;17.50;99.90;;;;;;4997156;28;20057;-84
2022/08/01 05:46:12;;;;;;;6.43;1.92;;;17.50;99.90;;;;;;4982761;28;20046;-84
2022/08/01 05:48:38;;;;;;;9.05;2.17;;;17.40;99.90;;;;;;4966970;28;20101;-84
2022/08/01 05:51:04;;;;;;;9.88;2.22;;;17.50;99.90;;;;;;4973722;28;20053;-83
2022/08/01 05:53:30;;;;;;;11.40;2.35;;;17.50;99.90;;;;;;4969995;28;20052;-83
2022/08/01 05:55:55;;;;;;;10.98;2.55;;;17.50;99.90;;;;;;5016338;28;20038;-84
2022/08/01 05:58:22;;;;;;;10.52;2.20;;;17.50;99.90;;;;;;4992696;28;20053;-90
2022/08/01 06:00:47;;;;;;;5.38;1.95;;;17.50;99.90;;;;;;4979773;28;20139;-86
2022/08/01 06:03:14;;;;;;;7.90;1.85;;;17.50;99.90;;;;;;4988646;28;20073;-86
2022/08/01 06:05:40;;;;;;;8.45;2.20;;;17.60;99.90;;;;;;4992733;28;20042;-85
2022/08/01 06:08:05;;;;;;;11.63;2.58;;;17.60;99.90;;;;;;4986683;28;20054;-83
2022/08/01 06:10:31;;;;;;;9.02;2.38;;;17.60;99.90;;;;;;4970994;28;20072;-86
2022/08/01 06:12:57;;;;;;;8.30;2.25;;;17.60;99.90;;;;;;4960745;28;20048;-82
2022/08/01 06:15:23;;;;;;;9.15;2.13;;;17.60;99.90;;;;;;4986106;28;20151;-82
2022/08/01 06:17:48;;;;;;;11.88;2.65;;;17.60;99.90;;;;;;4986927;28;20179;-82
2022/08/01 06:20:15;;;;;;;6.32;1.80;;;17.60;99.90;;;;;;4984577;28;21636;-83
2022/08/01 06:22:40;;;;;;;7.30;1.70;;;17.70;99.90;;;;;;4985192;28;20080;-84
2022/08/01 06:25:07;;;;;;;8.43;2.13;;;17.70;99.90;;;;;;4984404;28;20058;-83
2022/08/01 06:27:36;;;;;;;7.28;2.10;;;17.70;99.90;;;;;;4968562;28;20045;-82
2022/08/01 06:30:03;;;;;;;8.45;1.90;;;17.70;99.90;;;;;;4992316;28;20065;-83
2022/08/01 06:32:29;;;;;;;6.97;1.90;;;17.90;99.90;;;;;;4989214;28;20495;-81
2022/08/01 06:34:55;;;;;;;6.93;2.22;;;17.90;99.90;;;;;;4985525;28;20491;-82
2022/08/01 06:37:21;;;;;;;7.50;2.17;;;18.00;99.90;;;;;;4974904;28;20049;-83
2022/08/01 06:39:47;;;;;;;10.15;2.38;;;18.00;99.90;;;;;;4989061;28;20042;-83
2022/08/01 06:42:14;;;;;;;10.15;2.15;;;18.10;99.90;;;;;;4982936;28;20359;-84
2022/08/01 06:44:40;;;;;;;5.43;1.55;;;17.90;99.90;;;;;;4989305;28;20049;-82
2022/08/01 06:47:06;;;;;;;8.32;2.38;;;18.20;99.90;;;;;;4989196;28;20103;-83
2022/08/01 06:49:31;;;;;;;7.22;2.10;;;18.30;99.90;;;;;;5000377;28;20049;-84
2022/08/01 06:51:59;;;;;;;10.20;1.60;;;18.10;99.90;;;;;;4985164;28;20041;-83
2022/08/01 06:54:25;;;;;;;8.95;2.15;;;18.40;99.90;;;;;;4989856;28;20124;-86
2022/08/01 06:56:51;;;;;;;7.05;1.88;;;18.40;99.90;;;;;;4990443;28;20133;-84
2022/08/01 06:59:17;;;;;;;8.05;1.98;;;18.50;99.90;;;;;;4993804;28;20119;-83
2022/08/01 07:01:43;;;;;;;7.07;1.83;;;18.50;99.90;;;;;;4973353;28;20046;-85
2022/08/01 07:04:08;;;;;;;7.35;1.95;;;18.70;99.90;;;;;;4987127;28;20050;-83
2022/08/01 07:06:34;;;;;;;5.32;1.70;;;18.70;99.90;;;;;;4969071;28;20066;-84
2022/08/01 07:09:01;;;;;;;7.97;1.60;;;18.80;99.90;;;;;;5004011;28;20268;-83
2022/08/01 07:11:27;;;;;;;8.68;1.88;;;18.80;99.90;;;;;;4954559;28;20116;-84
2022/08/01 07:13:53;;;;;;;9.18;2.33;;;18.90;99.90;;;;;;4988073;28;20041;-86
2022/08/01 07:16:18;;;;;;;8.32;1.63;;;18.90;99.90;;;;;;4987869;28;20041;-87
2022/08/01 07:18:44;;;;;;;6.93;2.10;;;19.00;99.90;;;;;;5000462;28;20096;-90
2022/08/01 07:21:11;;;;;;;8.80;1.92;;;19.20;99.90;;;;;;4988825;28;20068;-88
2022/08/01 07:23:37;;;;;;;7.85;1.65;;;19.50;99.90;;;;;;4973463;28;20041;-86
2022/08/01 07:26:06;;;;;;;7.57;1.80;;;19.50;99.90;;;;;;4978197;28;20065;-86
2022/08/01 07:28:32;;;;;;;6.38;2.00;;;19.50;99.90;;;;;;4997156;28;20410;-85
2022/08/01 07:30:58;;;;;;;5.72;1.70;;;19.60;99.90;;;;;;4989442;28;20053;-85
2022/08/01 07:33:23;;;;;;;7.60;1.67;;;19.70;99.90;;;;;;5012675;28;20046;-86
2022/08/01 07:35:49;;;;;;;6.35;1.60;;;19.70;99.90;;;;;;4981770;28;20050;-82
2022/08/01 07:38:16;;;;;;;6.93;1.77;;;19.80;99.90;;;;;;5002515;28;20111;-85
2022/08/01 07:40:43;;;;;;;6.40;1.70;;;19.80;99.90;;;;;;4979841;28;20057;-86
2022/08/01 07:43:09;;;;;;;6.25;1.60;;;19.80;99.90;;;;;;4990306;28;20141;-84
2022/08/01 07:45:35;;;;;;;7.05;1.73;;;19.80;99.90;;;;;;4981497;28;20124;-86
2022/08/01 07:48:05;;;;;;;6.00;1.58;;;19.90;99.90;;;;;;4996940;28;20060;-87
2022/08/01 07:50:32;;;;;;;6.05;1.65;;;20.00;99.90;;;;;;4994279;28;20058;-86
2022/08/01 07:52:58;;;;;;;4.97;1.60;;;20.40;99.90;;;;;;4994970;28;20053;-87
2022/08/01 07:56:06;;;;;;;;;;;;;;;;;;;;;
2022/08/01 07:58:33;;;;;;;8.50;1.52;;;20.20;99.90;;;;;;5004555;28;20045;-85
2022/08/01 08:00:59;;;;;;;5.78;1.50;;;20.20;99.90;;;;;;4994187;28;20049;-87
2022/08/01 08:03:26;;;;;;;5.57;1.58;;;20.20;99.90;;;;;;4992294;28;20100;-84
2022/08/01 08:05:52;;;;;;;9.50;1.50;;;20.20;99.90;;;;;;4986766;28;20483;-84
2022/08/01 08:08:20;;;;;;;5.05;1.40;;;20.40;99.90;;;;;;4992093;28;20152;-85
2022/08/01 08:10:46;;;;;;;7.32;1.77;;;20.60;99.90;;;;;;4987723;28;20584;-85
2022/08/01 08:13:15;;;;;;;5.65;1.42;;;20.70;99.90;;;;;;4985976;28;20538;-86
2022/08/01 08:15:41;;;;;;;5.45;1.25;;;20.70;99.90;;;;;;4973746;28;20054;-83
2022/08/01 08:18:07;;;;;;;4.88;1.48;;;20.20;99.90;;;;;;4992339;28;20131;-83
2022/08/01 08:20:32;;;;;;;6.68;1.75;;;20.80;99.90;;;;;;4986295;28;20131;-83
2022/08/01 08:22:58;;;;;;;5.85;1.40;;;20.90;99.90;;;;;;4978113;28;20049;-85
2022/08/01 08:25:25;;;;;;;6.00;1.50;;;21.00;99.90;;;;;;4991481;28;20045;-83
2022/08/01 08:27:51;;;;;;;3.40;1.30;;;21.00;99.90;;;;;;5002358;28;20467;-83
2022/08/01 08:30:17;;;;;;;4.20;1.63;;;21.10;99.90;;;;;;4987386;28;20108;-84
2022/08/01 08:32:43;;;;;;;8.75;1.90;;;21.10;99.90;;;;;;4978020;28;20054;-84
2022/08/01 08:35:09;;;;;;;6.13;1.52;;;21.10;99.90;;;;;;4979486;28;20050;-85
2022/08/01 08:37:35;;;;;;;5.50;1.67;;;21.00;99.90;;;;;;4971339;28;20050;-86
2022/08/01 08:40:03;;;;;;;5.72;1.50;;;21.10;99.90;;;;;;4994089;28;20552;-85
2022/08/01 08:42:29;;;;;;;6.65;1.60;;;21.10;99.90;;;;;;4987969;28;20061;-85
2022/08/01 08:44:55;;;;;;;7.05;1.65;;;21.00;99.90;;;;;;4970114;28;20054;-84
2022/08/01 08:47:22;;;;;;;7.22;1.58;;;21.20;99.90;;;;;;5002686;28;20322;-84
2022/08/01 08:49:50;;;;;;;6.00;1.45;;;21.50;99.90;;;;;;4993691;28;20045;-84
2022/08/01 08:52:19;;;;;;;7.28;1.30;;;21.60;99.90;;;;;;4985875;28;20100;-84
2022/08/01 08:54:46;;;;;;;7.15;1.40;;;21.60;99.90;;;;;;4986007;28;20049;-84
2022/08/01 08:57:14;;;;;;;5.95;1.60;;;21.60;99.90;;;;;;4992326;28;20545;-84
2022/08/01 08:59:42;;;;;;;6.40;1.33;;;21.50;99.90;;;;;;4986371;28;20057;-83
2022/08/01 09:02:09;;;;;;;7.82;1.40;;;21.50;99.90;;;;;;4969350;28;20068;-83
2022/08/01 09:04:36;;;;;;;7.43;1.55;;;21.60;99.90;;;;;;4984289;28;20057;-84
2022/08/01 09:07:04;;;;;;;5.53;1.27;;;21.70;99.90;;;;;;4985830;28;20086;-83
2022/08/01 09:09:30;;;;;;;6.72;1.42;;;21.90;99.90;;;;;;5000637;28;20168;-85
2022/08/01 09:11:56;;;;;;;5.40;1.35;;;22.10;99.90;;;;;;4986109;28;20136;-86
2022/08/01 09:14:23;;;;;;;8.48;1.52;;;22.30;99.90;;;;;;4960111;28;20141;-86
2022/08/01 09:17:01;;;;;;;4.78;1.30;;;22.50;99.90;;;;;;4992700;28;20050;-88
2022/08/01 09:19:36;;;;;;;6.10;1.30;;;22.60;99.90;;;;;;5001719;28;20053;-87
2022/08/01 09:22:03;;;;;;;4.93;1.17;;;22.80;99.90;;;;;;4988549;28;20077;-87
2022/08/01 09:24:33;;;;;;;8.38;1.45;;;23.00;99.90;;;;;;4989253;28;20041;-87
2022/08/01 09:27:00;;;;;;;4.57;1.25;;;23.10;99.90;;;;;;5000893;28;20077;-84
2022/08/01 09:29:28;;;;;;;4.07;1.30;;;23.30;99.90;;;;;;4991946;28;20450;-85
2022/08/01 09:31:56;;;;;;;6.13;1.20;;;23.50;99.90;;;;;;4993685;28;20403;-82
2022/08/01 09:34:27;;;;;;;4.78;1.30;;;23.60;99.90;;;;;;4988677;28;20111;-84
2022/08/01 09:37:01;;;;;;;5.50;1.15;;;23.70;99.90;;;;;;5001212;28;20046;-83
2022/08/01 09:39:30;;;;;;;4.78;1.38;;;23.70;99.90;;;;;;4999120;28;20351;-83
2022/08/01 09:42:00;;;;;;;5.85;1.30;;;23.70;99.90;;;;;;4986621;28;20053;-83
2022/08/01 09:44:45;;;;;;;4.55;1.52;;;23.70;99.90;;;;;;5002216;28;20076;-83
2022/08/01 09:47:16;;;;;;;5.15;1.30;;;23.80;99.90;;;;;;4971464;28;20050;-83
2022/08/01 09:49:43;;;;;;;2.38;1.00;;;23.80;99.90;;;;;;4972993;28;20128;-81
2022/08/01 09:52:22;;;;;;;3.83;0.90;;;23.90;99.90;;;;;;5000629;28;20120;-82
2022/08/01 09:55:03;;;;;;;3.30;1.05;;;24.20;99.90;;;;;;5002708;28;20042;-81
2022/08/01 09:57:29;;;;;;;3.20;1.05;;;24.40;99.90;;;;;;5004960;28;20041;-81
2022/08/01 09:59:57;;;;;;;5.68;1.10;;;24.70;99.90;;;;;;4987411;28;20060;-82
2022/08/01 10:02:37;;;;;;;5.47;1.20;;;24.80;99.90;;;;;;4992818;28;20475;-82
2022/08/01 10:05:05;;;;;;;6.07;1.35;;;24.90;99.80;;;;;;4991295;28;20053;-81
2022/08/01 10:07:31;;;;;;;2.95;1.00;;;25.10;99.90;;;;;;4983894;28;20093;-84
2022/08/01 10:10:13;;;;;;;3.50;0.98;;;25.30;99.90;;;;;;4976653;28;20081;-83
2022/08/01 10:12:41;;;;;;;6.25;1.20;;;25.30;98.90;;;;;;4971556;28;20072;-83
2022/08/01 10:15:08;;;;;;;5.13;1.25;;;25.40;99.80;;;;;;4999951;28;20064;-83
2022/08/01 10:17:36;;;;;;;3.45;1.20;;;25.50;99.10;;;;;;4985817;28;20049;-84
2022/08/01 10:20:03;;;;;;;4.88;1.50;;;25.50;98.50;;;;;;4991972;28;20168;-83
2022/08/01 10:22:30;;;;;;;3.08;1.00;;;25.50;97.90;;;;;;4974721;28;20053;-82
2022/08/01 10:24:59;;;;;;;3.58;1.00;;;25.50;97.10;;;;;;5001105;28;20403;-83
2022/08/01 10:27:25;;;;;;;4.10;1.10;;;25.70;97.20;;;;;;5018902;28;20046;-82
2022/08/01 10:30:03;;;;;;;3.30;1.10;;;25.80;97.50;;;;;;4985580;28;20100;-82
2022/08/01 10:32:30;;;;;;;3.38;1.00;;;25.90;96.30;;;;;;5002563;28;20180;-83
2022/08/01 10:34:59;;;;;;;3.67;1.05;;;25.80;96.00;;;;;;4997311;28;20838;-83
2022/08/01 10:37:25;;;;;;;5.63;1.20;;;25.70;95.30;;;;;;5007971;28;20038;-89
2022/08/01 10:39:52;;;;;;;4.82;1.20;;;25.60;94.80;;;;;;5004071;28;20041;-89
2022/08/01 10:42:18;;;;;;;4.75;1.00;;;25.60;95.20;;;;;;5025156;28;20050;-89
2022/08/01 10:44:47;;;;;;;4.53;1.02;;;25.90;95.70;;;;;;4990592;28;20049;-89
2022/08/01 10:47:16;;;;;;;4.95;1.30;;;25.50;95.50;;;;;;4999850;28;20053;-92
2022/08/01 10:49:59;;;;;;;5.30;1.33;;;26.30;95.80;;;;;;4996706;28;20045;-89
2022/08/01 10:52:25;;;;;;;3.45;1.00;;;25.50;91.90;;;;;;5000754;28;20049;-88
2022/08/01 10:55:10;;;;;;;3.22;0.98;;;25.50;94.60;;;;;;4996280;28;20053;-89
2022/08/01 10:57:48;;;;;;;3.63;1.15;;;25.60;93.50;;;;;;4989784;28;20103;-89
2022/08/01 11:00:23;;;;;;;3.60;0.82;;;25.80;94.00;;;;;;4986296;28;20132;-90
2022/08/01 11:03:05;;;;;;;4.82;1.30;;;25.90;91.40;;;;;;4975256;28;20045;-89
2022/08/01 11:05:34;;;;;;;3.28;1.10;;;26.10;93.30;;;;;;4984420;28;20056;-91
2022/08/01 11:08:10;;;;;;;11.85;2.00;;;26.20;92.60;;;;;;5000738;28;20207;-89
2022/08/01 11:10:43;;;;;;;10.23;1.27;;;26.10;91.60;;;;;;4988651;28;20622;-88
2022/08/01 11:13:12;;;;;;;2.50;0.88;;;26.10;86.80;;;;;;4997222;28;20046;-89
2022/08/01 11:15:56;;;;;;;6.82;1.30;;;26.20;91.80;;;;;;4994164;28;20088;-90
2022/08/01 11:18:29;;;;;;;4.70;1.10;;;26.10;91.30;;;;;;4996656;28;20038;-89
2022/08/01 11:21:05;;;;;;;4.82;1.08;;;26.20;90.00;;;;;;4992826;28;20052;-87
2022/08/01 11:23:53;;;;;;;5.55;1.00;;;26.20;90.70;;;;;;5008661;28;20520;-88
2022/08/01 11:26:23;;;;;;;11.47;1.27;;;26.30;89.00;;;;;;4996953;28;20042;-87
2022/08/01 11:29:15;;;;;;;5.05;1.10;;;26.30;89.80;;;;;;4986745;28;20336;-89
2022/08/01 11:31:40;;;;;;;3.50;0.98;;;26.60;86.70;;;;;;4991906;28;20067;-86
2022/08/01 11:34:08;;;;;;;3.17;0.90;;;26.70;88.70;;;;;;4998865;28;20133;-87
2022/08/01 11:36:34;;;;;;;4.00;1.15;;;26.70;89.00;;;;;;4993918;28;20103;-89
2022/08/01 11:39:10;;;;;;;60.45;5.68;;;26.90;89.40;;;;;;4996357;28;20046;-89
2022/08/01 11:41:41;;;;;;;43.88;3.65;;;27.00;88.20;;;;;;4996186;28;20056;-88
2022/08/01 11:44:13;;;;;;;16.70;1.80;;;27.10;86.70;;;;;;4993489;28;20058;-89
2022/08/01 11:46:48;;;;;;;4.30;1.10;;;27.10;85.20;;;;;;5004757;28;20045;-88
2022/08/01 11:49:34;;;;;;;7.57;1.10;;;27.00;83.10;;;;;;4994554;28;20384;-87
2022/08/01 11:52:05;;;;;;;3.60;1.20;;;26.90;82.60;;;;;;4997361;28;20074;-89
2022/08/01 11:54:37;;;;;;;5.38;0.90;;;27.10;85.20;;;;;;4996366;28;20061;-89
2022/08/01 11:57:09;;;;;;;4.00;1.38;;;27.20;85.50;;;;;;4998705;28;20068;-89
2022/08/01 11:59:48;;;;;;;8.55;1.33;;;27.00;83.50;;;;;;4986679;28;20495;-89
2022/08/01 12:02:22;;;;;;;4.32;1.02;;;26.90;84.60;;;;;;4997438;28;20114;-88
2022/08/01 12:05:01;;;;;;;4.30;1.00;;;26.90;84.10;;;;;;5003011;28;20049;-88
2022/08/01 12:07:32;;;;;;;4.25;0.90;;;27.10;83.00;;;;;;5004431;28;20555;-87
2022/08/01 12:10:03;;;;;;;2.90;0.95;;;27.30;83.60;;;;;;5003337;28;20376;-87
2022/08/01 12:12:30;;;;;;;6.25;1.20;;;27.30;82.20;;;;;;5001862;28;20056;-88
2022/08/01 12:14:59;;;;;;;3.00;0.85;;;27.30;81.40;;;;;;5006042;28;20073;-89
2022/08/01 12:17:39;;;;;;;3.67;1.00;;;27.30;81.10;;;;;;4991771;28;20044;-87
2022/08/01 12:20:08;;;;;;;5.30;0.90;;;27.50;81.30;;;;;;4995760;28;20133;-87
2022/08/01 12:22:34;;;;;;;5.85;1.10;;;27.60;82.70;;;;;;5005324;28;20176;-88
2022/08/01 12:25:17;;;;;;;4.53;1.00;;;27.20;81.70;;;;;;4994081;28;20042;-88
2022/08/01 12:27:45;;;;;;;4.43;0.82;;;28.10;77.70;;;;;;4995438;28;20403;-87
2022/08/01 12:30:24;;;;;;;6.53;1.10;;;28.40;79.40;;;;;;4989396;28;20054;-88
2022/08/01 12:32:52;;;;;;;5.90;1.38;;;28.50;75.10;;;;;;5002385;28;20057;-88
2022/08/01 12:35:24;;;;;;;3.35;1.00;;;28.50;78.00;;;;;;5005198;28;20049;-88
2022/08/01 12:38:02;;;;;;;4.00;1.08;;;27.90;76.70;;;;;;5011379;28;20057;-89
2022/08/01 12:40:31;;;;;;;2.85;0.90;;;27.90;77.00;;;;;;5001205;28;20425;-88
2022/08/01 12:43:05;;;;;;;7.40;1.40;;;27.70;76.70;;;;;;4983642;28;20065;-88
2022/08/01 12:45:34;;;;;;;4.07;1.27;;;28.40;74.10;;;;;;4980669;28;20069;-90
2022/08/01 12:48:01;;;;;;;4.93;1.10;;;28.40;75.90;;;;;;4981294;28;20050;-87
2022/08/01 12:50:29;;;;;;;3.78;1.13;;;27.80;75.00;;;;;;4969750;28;20073;-88
2022/08/01 12:52:56;;;;;;;3.22;1.00;;;28.60;75.30;;;;;;4974435;28;20049;-86
2022/08/01 12:55:25;;;;;;;4.45;1.00;;;28.80;74.80;;;;;;4974843;28;20042;-87